Oakfield, Georgia
Current Conditions -  °F | °C
As of 1:55 PM on Thursday 30 Oct 2014 (Local Time) from KCKF Reporting Station
Clear Clear  
Wind Chill: 71°   Ceiling: Unl
Heat Index: 71°   Visibility: 10mi
Dew Point: 49°   Wind: 10mph
Humidity: 46%   Direction: 20°NNE
Pressure: 30"   Gusts: NA
Location:  31.78°N, 83.97°W
Report Text: KCKF 301755Z AUTO 02009KT 10SM CLR 21/09 A3000 RMK AO2 T02140092 10214 20112
Loading
Personal Weather Stations






























Interactive Weather Map
Tropical Storm Tracking
New forecast layout! Learn more

10-Day Weather Forecast

Advertisements
Track Severe Weather on mobile